Time;durP1;ratioP1;P1;durP2;ratioP2;P2;SDS_P1;SDS_P2;PMS_P1;PMS_P2;Temp;Humidity;BMP_temperature;BMP_pressure;BME280_temperature;BME280_humidity;BME280_pressure;Samples;Min_cycle;Max_cycle;Signal;HPM_P1;HPM_P2
2021/12/03 00:01:33;;;;;;;1.90;1.60;;;-1.20;99.90;;;;;;4391705;32;20081;-77
2021/12/03 00:04:00;;;;;;;2.72;2.00;;;-1.10;99.90;;;;;;4390083;32;20169;-77
2021/12/03 00:06:26;;;;;;;2.28;1.83;;;-1.20;99.90;;;;;;4393942;32;20077;-77
2021/12/03 00:08:54;;;;;;;2.25;1.75;;;-1.20;99.90;;;;;;4393562;32;20484;-76
2021/12/03 00:11:20;;;;;;;2.28;1.90;;;-1.10;99.90;;;;;;4377729;32;20074;-77
2021/12/03 00:13:46;;;;;;;2.25;1.70;;;-1.20;99.90;;;;;;4378070;32;20085;-75
2021/12/03 00:16:13;;;;;;;1.75;1.65;;;-1.30;99.90;;;;;;4364579;32;20512;-76
2021/12/03 00:18:40;;;;;;;2.33;2.12;;;-1.30;99.90;;;;;;4390613;32;20182;-76
2021/12/03 00:21:09;;;;;;;2.55;1.85;;;-1.30;99.90;;;;;;4390467;32;20086;-75
2021/12/03 00:23:36;;;;;;;2.05;1.85;;;-1.30;99.90;;;;;;4389643;32;20504;-76
2021/12/03 00:26:05;;;;;;;2.20;1.75;;;-1.30;99.90;;;;;;4365305;32;20451;-77
2021/12/03 00:28:32;;;;;;;2.75;1.80;;;-1.20;99.90;;;;;;4389749;32;20101;-77
2021/12/03 00:31:00;;;;;;;2.30;1.90;;;-1.20;99.90;;;;;;4377385;32;20095;-76
2021/12/03 00:33:29;;;;;;;3.22;2.05;;;-1.20;99.90;;;;;;4402546;32;20218;-74
2021/12/03 00:35:55;;;;;;;2.35;1.80;;;-1.20;99.90;;;;;;4389434;32;20444;-76
2021/12/03 00:38:22;;;;;;;2.53;2.03;;;-1.20;99.90;;;;;;4402575;32;20096;-76
2021/12/03 00:40:49;;;;;;;2.40;1.70;;;-1.20;99.90;;;;;;4402407;32;20073;-75
2021/12/03 00:43:15;;;;;;;1.98;1.75;;;-1.30;99.90;;;;;;4389703;32;20631;-74
2021/12/03 00:45:43;;;;;;;2.28;1.90;;;-1.20;99.90;;;;;;4389661;32;20186;-77
2021/12/03 00:48:10;;;;;;;3.00;2.10;;;-1.20;99.90;;;;;;4377046;32;20149;-77
2021/12/03 00:53:17;;;;;;;2.23;1.93;;;-1.20;99.90;;;;;;3857190;37;20077;-77
2021/12/03 00:55:43;;;;;;;2.20;2.00;;;-1.20;99.90;;;;;;4418200;32;20164;-75
2021/12/03 00:58:10;;;;;;;2.70;2.17;;;-1.20;99.90;;;;;;4418298;32;20526;-76
2021/12/03 01:00:36;;;;;;;2.33;1.80;;;-1.20;99.90;;;;;;4405778;32;20077;-76
2021/12/03 01:03:03;;;;;;;3.20;2.15;;;-1.20;99.90;;;;;;4419716;32;20072;-75
2021/12/03 01:05:30;;;;;;;2.35;1.98;;;-1.30;99.90;;;;;;4418226;32;20086;-75
2021/12/03 01:07:57;;;;;;;2.72;2.00;;;-1.20;99.90;;;;;;4410911;32;20077;-77
2021/12/03 01:10:25;;;;;;;2.70;2.05;;;-1.30;99.90;;;;;;4390270;32;20130;-76
2021/12/03 01:12:53;;;;;;;2.75;2.30;;;-1.30;99.90;;;;;;4390169;32;20184;-76
2021/12/03 01:15:28;;;;;;;2.60;2.12;;;-1.30;99.90;;;;;;4378187;32;20074;-75
2021/12/03 01:17:55;;;;;;;3.33;2.50;;;-1.20;99.90;;;;;;4390033;32;20502;-74
2021/12/03 01:20:21;;;;;;;2.50;2.20;;;-1.20;99.90;;;;;;4377622;32;20086;-76
2021/12/03 01:22:51;;;;;;;2.62;2.15;;;-1.30;99.90;;;;;;4402447;32;20089;-74
2021/12/03 01:25:20;;;;;;;3.08;2.60;;;-1.30;99.90;;;;;;4389918;32;20066;-77
2021/12/03 01:27:49;;;;;;;4.07;2.50;;;-1.20;99.90;;;;;;4402515;32;20062;-76
2021/12/03 01:30:19;;;;;;;3.55;2.20;;;-1.20;99.90;;;;;;4378285;32;20154;-77
2021/12/03 01:32:47;;;;;;;2.80;2.30;;;-1.30;99.90;;;;;;4403062;32;20096;-74
2021/12/03 01:35:14;;;;;;;2.70;2.30;;;-1.20;99.90;;;;;;4390593;32;20491;-76
2021/12/03 01:37:41;;;;;;;3.35;2.30;;;-1.20;99.90;;;;;;4389767;32;20534;-77
2021/12/03 01:40:12;;;;;;;3.33;2.30;;;-1.20;99.90;;;;;;4403157;32;20085;-75
2021/12/03 01:42:41;;;;;;;2.83;2.30;;;-1.30;99.90;;;;;;4390231;32;20081;-77
2021/12/03 01:45:09;;;;;;;2.75;2.30;;;-1.30;99.90;;;;;;4402280;32;20087;-75
2021/12/03 01:47:36;;;;;;;3.30;2.55;;;-1.30;99.90;;;;;;4389734;32;20167;-75
2021/12/03 01:50:04;;;;;;;3.85;2.37;;;-1.30;99.90;;;;;;4402125;32;20073;-75
2021/12/03 01:52:30;;;;;;;2.87;2.30;;;-1.30;99.90;;;;;;4376825;32;20103;-75
2021/12/03 01:54:59;;;;;;;2.85;2.30;;;-1.20;99.90;;;;;;4403768;32;20078;-74
2021/12/03 01:57:26;;;;;;;3.20;2.50;;;-1.20;99.90;;;;;;4403859;32;20085;-75
2021/12/03 01:59:53;;;;;;;4.60;2.60;;;-1.30;99.90;;;;;;4403418;32;20082;-75
2021/12/03 02:02:20;;;;;;;3.28;2.40;;;-1.20;99.90;;;;;;4389936;32;20089;-75
2021/12/03 02:04:46;;;;;;;3.65;2.20;;;-1.30;99.90;;;;;;4392842;32;20523;-74
2021/12/03 02:07:14;;;;;;;3.58;2.60;;;-1.30;99.90;;;;;;4379851;32;20093;-77
2021/12/03 02:09:41;;;;;;;3.85;2.35;;;-1.20;99.90;;;;;;4380009;32;20081;-76
2021/12/03 02:12:08;;;;;;;3.70;2.70;;;-1.20;99.90;;;;;;4379494;32;20159;-76
2021/12/03 02:14:35;;;;;;;3.58;2.62;;;-1.20;99.90;;;;;;4379142;32;20531;-75
2021/12/03 02:17:01;;;;;;;3.65;2.60;;;-1.30;99.90;;;;;;4393101;32;20508;-76
2021/12/03 02:19:29;;;;;;;3.87;2.67;;;-1.30;99.90;;;;;;4392311;32;20078;-75
2021/12/03 02:21:55;;;;;;;3.72;2.70;;;-1.20;99.90;;;;;;4379818;32;20069;-77
2021/12/03 02:24:22;;;;;;;4.05;2.92;;;-1.20;99.90;;;;;;4367407;32;20074;-77
2021/12/03 02:26:50;;;;;;;4.12;2.90;;;-1.30;99.90;;;;;;4391734;32;20134;-77
2021/12/03 02:29:17;;;;;;;3.53;2.65;;;-1.40;99.90;;;;;;4391575;32;20066;-75
2021/12/03 02:31:43;;;;;;;5.45;3.10;;;-1.40;99.90;;;;;;4392091;32;20084;-76
2021/12/03 02:34:09;;;;;;;3.62;2.72;;;-1.50;99.90;;;;;;4394998;32;20066;-77
2021/12/03 02:36:37;;;;;;;5.18;2.90;;;-1.50;99.90;;;;;;4381146;32;20488;-75
2021/12/03 02:39:04;;;;;;;3.83;2.85;;;-1.50;99.90;;;;;;4391953;32;20517;-77
2021/12/03 02:41:31;;;;;;;4.20;2.80;;;-1.50;99.90;;;;;;4366689;32;20089;-76
2021/12/03 02:43:57;;;;;;;4.70;3.30;;;-1.50;99.90;;;;;;4391623;32;20167;-76
2021/12/03 02:46:24;;;;;;;4.90;3.12;;;-1.60;99.90;;;;;;4391202;32;20526;-78
2021/12/03 02:48:50;;;;;;;5.32;3.83;;;-1.50;99.90;;;;;;4391444;32;20077;-73
2021/12/03 02:51:16;;;;;;;3.70;3.15;;;-1.50;99.90;;;;;;4391298;32;20137;-77
2021/12/03 02:53:43;;;;;;;4.90;3.60;;;-1.50;99.90;;;;;;4391918;32;20484;-75
2021/12/03 02:56:09;;;;;;;5.05;3.60;;;-1.50;99.90;;;;;;4378768;32;20153;-75
2021/12/03 02:58:37;;;;;;;5.80;3.85;;;-1.60;99.90;;;;;;4366788;32;20089;-76
2021/12/03 03:01:08;;;;;;;6.45;3.70;;;-1.60;99.90;;;;;;4391538;32;20078;-76
2021/12/03 03:03:35;;;;;;;7.20;4.12;;;-1.50;99.90;;;;;;4391145;32;20444;-76
2021/12/03 03:06:07;;;;;;;6.50;4.10;;;-1.60;99.90;;;;;;4378812;32;20070;-76
2021/12/03 03:08:34;;;;;;;6.45;3.92;;;-1.50;99.90;;;;;;4378795;32;20089;-75
2021/12/03 03:11:03;;;;;;;6.25;4.12;;;-1.50;99.90;;;;;;4391026;32;20076;-75
2021/12/03 03:13:29;;;;;;;9.40;4.95;;;-1.50;99.90;;;;;;4378720;32;20062;-75
2021/12/03 03:15:57;;;;;;;6.53;4.43;;;-1.50;99.90;;;;;;4391898;32;20108;-77
2021/12/03 03:18:26;;;;;;;6.25;4.18;;;-1.40;99.90;;;;;;4378494;32;20078;-76
2021/12/03 03:20:55;;;;;;;7.28;4.65;;;-1.40;99.90;;;;;;4366522;32;20073;-76
2021/12/03 03:23:22;;;;;;;7.43;4.78;;;-1.50;99.90;;;;;;4392312;32;20070;-76
2021/12/03 03:25:50;;;;;;;7.70;5.00;;;-1.50;99.90;;;;;;4391935;32;20148;-75
2021/12/03 03:28:19;;;;;;;7.03;5.00;;;-1.50;99.90;;;;;;4365955;32;20077;-76
2021/12/03 03:30:49;;;;;;;7.70;4.85;;;-1.50;99.90;;;;;;4378455;32;20101;-76
2021/12/03 03:33:18;;;;;;;6.87;4.20;;;-1.40;99.90;;;;;;4378011;32;20598;-75
2021/12/03 03:35:45;;;;;;;6.80;4.18;;;-1.50;99.90;;;;;;4378264;32;20096;-76
2021/12/03 03:38:12;;;;;;;7.20;4.68;;;-1.40;99.90;;;;;;4365760;32;20153;-74
2021/12/03 03:40:40;;;;;;;6.32;3.85;;;-1.40;99.90;;;;;;4391188;32;20102;-75
2021/12/03 03:43:07;;;;;;;5.75;3.85;;;-1.40;99.90;;;;;;4390709;32;20090;-75
2021/12/03 03:45:36;;;;;;;7.05;3.80;;;-1.40;99.90;;;;;;4390684;32;20081;-75
2021/12/03 03:48:04;;;;;;;6.85;4.05;;;-1.40;99.90;;;;;;4390609;32;20070;-76
2021/12/03 03:50:30;;;;;;;5.93;4.00;;;-1.40;99.90;;;;;;4390602;32;20246;-76
2021/12/03 03:52:58;;;;;;;5.40;3.62;;;-1.40;99.90;;;;;;4390797;32;20167;-75
2021/12/03 03:55:26;;;;;;;5.62;3.80;;;-1.30;99.90;;;;;;4377940;32;20085;-75
2021/12/03 03:57:56;;;;;;;6.95;4.20;;;-1.30;99.90;;;;;;4378072;32;20078;-77
2021/12/03 04:00:36;;;;;;;6.15;4.32;;;-1.30;99.90;;;;;;4390967;32;20081;-77
2021/12/03 04:03:04;;;;;;;6.78;3.80;;;-1.30;99.90;;;;;;4377728;32;20085;-75
2021/12/03 04:05:30;;;;;;;6.72;4.03;;;-1.20;99.90;;;;;;4377475;32;20157;-73
2021/12/03 04:07:57;;;;;;;6.28;4.00;;;-1.20;99.90;;;;;;4365937;32;20086;-76
2021/12/03 04:10:23;;;;;;;6.03;4.15;;;-1.10;99.90;;;;;;4391698;32;20073;-76
2021/12/03 04:12:51;;;;;;;5.12;3.22;;;-1.20;99.90;;;;;;4377572;32;20069;-75
2021/12/03 04:15:17;;;;;;;6.87;3.17;;;-1.10;99.90;;;;;;4377520;32;20161;-76
2021/12/03 04:17:44;;;;;;;5.93;3.60;;;-1.10;99.90;;;;;;4390112;32;20109;-75
2021/12/03 04:20:14;;;;;;;5.95;3.87;;;-1.10;99.90;;;;;;4389728;32;20077;-74
2021/12/03 04:22:42;;;;;;;6.68;3.70;;;-1.00;99.90;;;;;;4390257;32;20082;-76
2021/12/03 04:25:13;;;;;;;6.90;3.62;;;-1.00;99.90;;;;;;4389922;32;20074;-76
2021/12/03 04:27:40;;;;;;;4.35;2.60;;;-0.90;99.90;;;;;;4365002;32;20152;-76
2021/12/03 04:30:12;;;;;;;4.95;2.65;;;-0.90;99.90;;;;;;4390114;32;20520;-75
2021/12/03 04:32:41;;;;;;;3.15;2.00;;;-0.90;99.90;;;;;;4377356;32;20078;-75
2021/12/03 04:35:08;;;;;;;2.85;2.12;;;-0.90;99.90;;;;;;4389912;32;20448;-75
2021/12/03 04:37:34;;;;;;;4.43;2.35;;;-0.90;99.90;;;;;;4389982;32;20462;-76
2021/12/03 04:40:01;;;;;;;5.80;3.85;;;-0.80;99.90;;;;;;4389710;32;20093;-75
2021/12/03 04:42:28;;;;;;;5.97;3.80;;;-0.80;99.90;;;;;;4389994;32;20078;-75
2021/12/03 04:44:54;;;;;;;6.50;3.80;;;-0.80;99.90;;;;;;4389734;32;20084;-75
2021/12/03 04:47:20;;;;;;;4.30;2.17;;;-0.80;99.90;;;;;;4389538;32;20069;-73
2021/12/03 04:49:47;;;;;;;5.00;3.60;;;-0.80;99.90;;;;;;4377302;32;20588;-75
2021/12/03 04:52:14;;;;;;;7.00;3.90;;;-0.80;99.90;;;;;;4377016;32;20070;-75
2021/12/03 04:54:42;;;;;;;6.85;4.05;;;-0.80;99.90;;;;;;4389929;32;20081;-75
2021/12/03 04:57:09;;;;;;;5.80;4.12;;;-0.70;99.90;;;;;;4365045;32;20074;-74
2021/12/03 04:59:36;;;;;;;7.25;4.10;;;-0.60;99.90;;;;;;4389490;32;20082;-76
2021/12/03 05:02:02;;;;;;;5.85;3.92;;;-0.70;99.90;;;;;;4377197;32;20452;-73
2021/12/03 05:04:36;;;;;;;6.25;3.95;;;-0.60;99.90;;;;;;4365046;32;20518;-75
2021/12/03 05:09:37;;;;;;;9.35;5.97;;;-0.60;99.90;;;;;;4389729;32;20077;-77
2021/12/03 05:12:05;;;;;;;6.10;4.40;;;-0.50;99.90;;;;;;4390055;32;20097;-77
2021/12/03 05:14:31;;;;;;;5.62;4.12;;;-0.50;99.90;;;;;;4377910;32;20077;-75
2021/12/03 05:16:58;;;;;;;6.25;4.12;;;-0.60;99.90;;;;;;4390160;32;20090;-76
2021/12/03 05:19:25;;;;;;;8.10;4.35;;;-0.50;99.90;;;;;;4377423;32;20455;-76
2021/12/03 05:21:51;;;;;;;7.75;4.95;;;-0.60;99.90;;;;;;4377808;32;20078;-77
2021/12/03 05:24:18;;;;;;;6.93;4.85;;;-0.60;99.90;;;;;;4391764;32;20088;-76
2021/12/03 05:26:45;;;;;;;6.45;4.40;;;-0.60;99.90;;;;;;4377426;32;20489;-74
2021/12/03 05:29:14;;;;;;;6.80;4.43;;;-0.50;99.90;;;;;;4365972;32;20078;-76
2021/12/03 05:31:41;;;;;;;6.07;4.00;;;-0.50;99.90;;;;;;4380592;32;20086;-77
2021/12/03 05:34:12;;;;;;;6.95;4.75;;;-0.50;99.90;;;;;;4379483;32;20069;-77
2021/12/03 05:36:39;;;;;;;5.80;3.90;;;-0.50;99.90;;;;;;4377880;32;20457;-74
2021/12/03 05:39:06;;;;;;;5.82;4.25;;;-0.50;99.90;;;;;;4391006;32;20441;-76
2021/12/03 05:41:35;;;;;;;6.95;4.32;;;-0.50;99.90;;;;;;4392752;32;20093;-75
2021/12/03 05:44:03;;;;;;;5.22;3.90;;;-0.60;99.90;;;;;;4379871;32;20150;-75
2021/12/03 05:46:30;;;;;;;6.10;3.87;;;-0.50;99.90;;;;;;4393988;32;20523;-74
2021/12/03 05:48:56;;;;;;;6.35;4.53;;;-0.50;99.90;;;;;;4393900;32;20066;-74
2021/12/03 05:51:25;;;;;;;5.75;4.20;;;-0.60;99.90;;;;;;4379208;32;20093;-77
2021/12/03 05:53:52;;;;;;;6.32;4.40;;;-0.50;99.90;;;;;;4392550;32;20463;-76
2021/12/03 05:56:18;;;;;;;5.90;4.30;;;-0.50;99.90;;;;;;4367490;32;20073;-74
2021/12/03 05:58:45;;;;;;;6.37;4.40;;;-0.50;99.90;;;;;;4379614;32;20195;-75
2021/12/03 06:01:12;;;;;;;5.95;4.70;;;-0.50;99.90;;;;;;4380177;32;20088;-76
2021/12/03 06:03:38;;;;;;;5.50;3.90;;;-0.50;99.90;;;;;;4392193;32;20141;-76
2021/12/03 06:06:04;;;;;;;5.32;3.90;;;-0.50;99.90;;;;;;4379304;32;20501;-75
2021/12/03 06:08:31;;;;;;;6.65;4.50;;;-0.50;99.90;;;;;;4379146;32;20102;-74
2021/12/03 06:10:57;;;;;;;5.85;4.40;;;-0.50;99.90;;;;;;4393388;32;20537;-75
2021/12/03 06:13:23;;;;;;;5.43;4.00;;;-0.50;99.90;;;;;;4379439;32;20085;-74
2021/12/03 06:15:50;;;;;;;5.22;4.55;;;-0.50;99.90;;;;;;4391827;32;20089;-76
2021/12/03 06:18:16;;;;;;;5.82;3.97;;;-0.50;99.90;;;;;;4391634;32;20512;-77
2021/12/03 06:20:43;;;;;;;4.53;3.30;;;-0.40;99.90;;;;;;4392868;32;20084;-77
2021/12/03 06:23:10;;;;;;;6.45;3.75;;;-0.40;99.90;;;;;;4391821;32;20088;-76
2021/12/03 06:25:36;;;;;;;6.62;4.40;;;-0.40;99.90;;;;;;4392527;32;20080;-76
2021/12/03 06:28:03;;;;;;;5.07;3.62;;;-0.40;99.90;;;;;;4379003;32;20078;-77
2021/12/03 06:30:29;;;;;;;6.35;4.30;;;-0.30;99.90;;;;;;4393027;32;20082;-77
2021/12/03 06:32:56;;;;;;;6.18;4.20;;;-0.30;99.90;;;;;;4378885;32;20073;-76
2021/12/03 06:35:23;;;;;;;5.68;4.12;;;-0.20;99.90;;;;;;4366480;32;20089;-73
2021/12/03 06:37:50;;;;;;;6.68;4.57;;;-0.30;99.90;;;;;;4366738;32;20066;-75
2021/12/03 06:40:21;;;;;;;5.00;2.62;;;-0.20;99.90;;;;;;4366429;32;20058;-74
2021/12/03 06:42:48;;;;;;;6.40;4.20;;;-0.20;99.90;;;;;;4378817;32;20526;-75
2021/12/03 06:45:17;;;;;;;5.25;3.90;;;-0.20;99.90;;;;;;4391522;32;20522;-75
2021/12/03 06:47:47;;;;;;;6.45;3.78;;;-0.10;99.90;;;;;;4378725;32;20519;-75
2021/12/03 06:50:18;;;;;;;7.00;4.00;;;-0.10;99.90;;;;;;4378991;32;20062;-76
2021/12/03 06:52:50;;;;;;;6.35;4.32;;;-0.10;99.90;;;;;;4391206;32;20095;-76
2021/12/03 06:55:16;;;;;;;6.40;3.97;;;0.00;99.90;;;;;;4379505;32;20084;-75
2021/12/03 06:57:44;;;;;;;6.68;4.55;;;0.00;99.90;;;;;;4392531;32;20096;-75
2021/12/03 07:00:14;;;;;;;6.68;4.12;;;0.00;99.90;;;;;;4391888;32;20086;-75
2021/12/03 07:02:40;;;;;;;5.20;3.58;;;0.10;99.90;;;;;;4391194;32;20085;-75
2021/12/03 07:05:09;;;;;;;7.50;3.87;;;0.10;99.90;;;;;;4390736;32;20081;-76
2021/12/03 07:07:36;;;;;;;6.45;4.65;;;0.20;99.90;;;;;;4357367;32;20102;-74
2021/12/03 07:10:05;;;;;;;6.60;4.35;;;0.30;99.90;;;;;;4366460;32;20452;-78
2021/12/03 07:12:32;;;;;;;5.25;3.78;;;0.30;99.90;;;;;;4351360;32;20109;-69
2021/12/03 07:14:58;;;;;;;6.07;4.35;;;0.30;99.90;;;;;;4367105;32;20078;-72
2021/12/03 07:17:29;;;;;;;5.85;4.72;;;0.40;99.90;;;;;;4381240;32;20155;-73
2021/12/03 07:19:59;;;;;;;7.03;4.62;;;0.40;99.90;;;;;;4373680;32;20159;-73
2021/12/03 07:22:27;;;;;;;7.05;4.62;;;0.40;99.90;;;;;;4377517;32;20931;-72
2021/12/03 07:24:54;;;;;;;7.05;4.57;;;0.40;99.90;;;;;;4385042;32;20456;-72
2021/12/03 07:27:21;;;;;;;6.03;4.25;;;0.50;99.90;;;;;;4371460;32;20073;-72
2021/12/03 07:29:48;;;;;;;6.70;5.00;;;0.50;99.90;;;;;;4385764;32;20477;-73
2021/12/03 07:32:21;;;;;;;6.37;4.90;;;0.50;99.90;;;;;;4385632;32;20085;-72
2021/12/03 07:34:48;;;;;;;6.53;5.18;;;0.50;99.90;;;;;;4375887;32;20101;-73
2021/12/03 07:37:15;;;;;;;8.02;4.90;;;0.50;99.90;;;;;;4376526;32;20082;-73
2021/12/03 07:39:44;;;;;;;7.18;4.70;;;0.60;99.90;;;;;;4380345;32;20113;-70
2021/12/03 07:42:10;;;;;;;7.18;5.18;;;0.60;99.90;;;;;;4376515;32;20072;-73
2021/12/03 07:44:37;;;;;;;6.55;4.95;;;0.70;99.90;;;;;;4385235;32;20516;-73
2021/12/03 07:47:04;;;;;;;7.57;4.95;;;0.70;99.90;;;;;;4365941;32;20148;-75
2021/12/03 07:49:30;;;;;;;6.00;4.30;;;0.70;99.90;;;;;;4364868;32;20104;-75
2021/12/03 07:52:00;;;;;;;5.47;3.60;;;0.70;99.90;;;;;;4382384;32;20078;-74
2021/12/03 07:54:26;;;;;;;6.53;4.68;;;0.70;99.90;;;;;;4379209;32;20878;-75
2021/12/03 07:56:53;;;;;;;7.57;4.85;;;0.80;99.90;;;;;;4385168;32;20209;-75
2021/12/03 07:59:19;;;;;;;6.78;4.57;;;0.80;99.90;;;;;;4364157;32;20066;-74
2021/12/03 08:01:46;;;;;;;5.82;4.72;;;0.90;99.90;;;;;;4375906;32;20074;-75
2021/12/03 08:04:17;;;;;;;6.95;5.18;;;0.90;99.90;;;;;;4381860;32;20236;-75
2021/12/03 08:06:45;;;;;;;6.82;5.07;;;0.90;99.90;;;;;;4376762;32;20080;-75
2021/12/03 08:09:11;;;;;;;6.35;5.05;;;0.90;99.90;;;;;;4376005;32;20192;-75
2021/12/03 08:11:39;;;;;;;9.18;5.30;;;0.90;99.90;;;;;;4380107;32;20066;-74
2021/12/03 08:14:06;;;;;;;7.30;5.78;;;1.00;99.90;;;;;;4387199;32;20070;-76
2021/12/03 08:16:33;;;;;;;7.62;5.12;;;1.00;99.90;;;;;;4376144;32;20821;-74
2021/12/03 08:18:59;;;;;;;7.45;5.12;;;1.00;99.90;;;;;;4388547;32;20078;-73
2021/12/03 08:21:26;;;;;;;6.70;5.07;;;1.10;99.90;;;;;;4379750;32;20496;-75
2021/12/03 08:23:53;;;;;;;6.68;5.00;;;1.10;99.90;;;;;;4379984;32;20070;-74
2021/12/03 08:26:19;;;;;;;7.05;5.57;;;1.10;99.90;;;;;;4386956;32;20517;-73
2021/12/03 08:28:46;;;;;;;8.32;5.90;;;1.20;99.90;;;;;;4383990;32;20109;-77
2021/12/03 08:31:14;;;;;;;8.75;5.85;;;1.20;99.90;;;;;;4377537;32;20109;-75
2021/12/03 08:33:42;;;;;;;6.57;4.97;;;1.20;99.90;;;;;;4357354;32;20074;-72
2021/12/03 08:38:48;;;;;;;7.47;5.67;;;1.30;99.90;;;;;;3851065;37;20054;-70
2021/12/03 08:41:17;;;;;;;7.15;5.07;;;1.30;99.90;;;;;;4403453;32;20578;-69
2021/12/03 08:43:47;;;;;;;8.15;5.43;;;1.40;99.90;;;;;;4408233;32;20093;-71
2021/12/03 08:46:20;;;;;;;7.90;5.10;;;1.40;99.90;;;;;;4404392;32;20066;-71
2021/12/03 08:48:48;;;;;;;8.00;5.50;;;1.40;99.90;;;;;;4408284;32;20050;-73
2021/12/03 08:56:57;;;;;;;8.77;6.10;;;1.50;99.90;;;;;;4405226;32;20241;-70
2021/12/03 08:59:23;;;;;;;7.45;5.72;;;1.60;99.90;;;;;;4393345;32;20077;-72
2021/12/03 09:01:50;;;;;;;8.20;6.12;;;1.60;99.90;;;;;;4406028;32;20073;-71
2021/12/03 09:04:19;;;;;;;8.45;5.70;;;1.60;99.90;;;;;;4404265;32;20092;-72
2021/12/03 09:06:46;;;;;;;9.13;6.68;;;1.60;99.90;;;;;;4390339;32;20523;-69
2021/12/03 09:09:12;;;;;;;7.65;5.72;;;1.70;99.90;;;;;;4388381;32;20078;-69
2021/12/03 09:11:39;;;;;;;10.02;6.68;;;1.70;99.90;;;;;;4387322;32;20070;-72
2021/12/03 09:14:15;;;;;;;8.30;6.45;;;1.70;99.90;;;;;;4389502;32;20086;-71
2021/12/03 09:16:43;;;;;;;7.45;6.12;;;1.70;99.90;;;;;;4379202;32;20100;-71
2021/12/03 09:19:19;;;;;;;9.88;6.10;;;1.70;99.90;;;;;;4362428;32;20174;-69
2021/12/03 09:21:47;;;;;;;8.90;6.47;;;1.70;99.90;;;;;;4390373;32;20485;-73
2021/12/03 09:24:16;;;;;;;8.88;6.35;;;1.70;99.90;;;;;;4390816;32;20093;-73
2021/12/03 09:26:43;;;;;;;9.48;6.15;;;1.70;99.90;;;;;;4398587;32;20141;-74
2021/12/03 09:29:13;;;;;;;8.68;5.87;;;1.70;99.90;;;;;;4375568;32;20586;-73
2021/12/03 09:31:43;;;;;;;9.05;6.80;;;1.70;99.90;;;;;;4384309;32;20132;-75
2021/12/03 09:34:14;;;;;;;9.10;6.97;;;1.70;99.90;;;;;;4386673;32;20141;-73
2021/12/03 09:36:41;;;;;;;9.20;7.10;;;1.80;99.90;;;;;;4379830;32;20082;-71
2021/12/03 09:39:15;;;;;;;10.15;6.10;;;1.90;99.90;;;;;;4387591;32;20125;-74
2021/12/03 09:41:42;;;;;;;10.38;6.57;;;1.90;99.90;;;;;;4364554;32;20111;-74
2021/12/03 09:44:09;;;;;;;10.10;6.80;;;1.90;99.90;;;;;;4379696;32;20088;-69
2021/12/03 09:46:36;;;;;;;8.82;5.97;;;2.00;99.90;;;;;;4370446;32;20085;-75
2021/12/03 09:52:15;;;;;;;9.77;6.18;;;2.00;99.90;;;;;;4365612;32;20070;-74
2021/12/03 09:54:41;;;;;;;9.70;6.25;;;2.10;99.90;;;;;;4370061;32;20091;-75
2021/12/03 09:57:27;;;;;;;12.48;6.70;;;2.10;99.90;;;;;;4374672;32;20059;-76
2021/12/03 10:05:40;;;;;;;10.15;7.55;;;2.20;99.90;;;;;;4390299;32;20074;-75
2021/12/03 10:13:33;;;;;;;8.82;6.10;;;2.30;99.90;;;;;;4377536;32;20222;-75
2021/12/03 10:18:49;;;;;;;9.57;6.70;;;2.40;99.90;;;;;;4376447;32;20507;-75
2021/12/03 10:30:27;;;;;;;;;;;2.50;99.90;;;;;;4366228;32;20444;-75
2021/12/03 10:33:40;;;;;;;8.90;7.15;;;2.60;99.90;;;;;;4376193;32;19981;-77
2021/12/03 10:42:07;;;;;;;9.55;6.35;;;2.60;99.90;;;;;;4375402;32;20082;-73
2021/12/03 10:44:53;;;;;;;10.40;6.32;;;2.50;99.90;;;;;;4376228;32;20150;-75
2021/12/03 10:51:04;;;;;;;8.73;5.90;;;2.60;99.90;;;;;;4364457;32;20070;-76
2021/12/03 11:04:24;;;;;;;8.40;6.37;;;2.60;99.90;;;;;;4377327;32;20138;-75
